sensor_id;sensor_type;location;lat;lon;timestamp;P1;durP1;ratioP1;P2;durP2;ratioP2
46941;SDS011;32676;52.630;4.896;2022-07-12T00:01:49;5.30;;;3.45;;
46941;SDS011;32676;52.630;4.896;2022-07-12T00:04:15;7.90;;;3.35;;
46941;SDS011;32676;52.630;4.896;2022-07-12T00:06:42;5.38;;;3.80;;
46941;SDS011;32676;52.630;4.896;2022-07-12T00:09:10;5.40;;;3.92;;
46941;SDS011;32676;52.630;4.896;2022-07-12T00:11:36;7.00;;;3.90;;
46941;SDS011;32676;52.630;4.896;2022-07-12T00:14:03;5.43;;;3.65;;
46941;SDS011;32676;52.630;4.896;2022-07-12T00:16:30;4.45;;;3.00;;
46941;SDS011;32676;52.630;4.896;2022-07-12T00:18:57;5.90;;;3.92;;
46941;SDS011;32676;52.630;4.896;2022-07-12T00:21:24;6.07;;;3.13;;
46941;SDS011;32676;52.630;4.896;2022-07-12T00:23:50;4.95;;;3.38;;
46941;SDS011;32676;52.630;4.896;2022-07-12T00:26:18;6.85;;;3.28;;
46941;SDS011;32676;52.630;4.896;2022-07-12T00:28:45;4.18;;;2.85;;
46941;SDS011;32676;52.630;4.896;2022-07-12T00:31:12;3.33;;;2.25;;
46941;SDS011;32676;52.630;4.896;2022-07-12T00:33:39;3.67;;;2.28;;
46941;SDS011;32676;52.630;4.896;2022-07-12T00:36:05;3.75;;;2.55;;
46941;SDS011;32676;52.630;4.896;2022-07-12T00:38:33;4.68;;;2.80;;
46941;SDS011;32676;52.630;4.896;2022-07-12T00:40:59;4.40;;;2.88;;
46941;SDS011;32676;52.630;4.896;2022-07-12T00:43:27;6.80;;;3.28;;
46941;SDS011;32676;52.630;4.896;2022-07-12T00:45:54;4.18;;;2.50;;
46941;SDS011;32676;52.630;4.896;2022-07-12T00:48:20;3.47;;;1.88;;
46941;SDS011;32676;52.630;4.896;2022-07-12T00:50:47;2.92;;;1.67;;
46941;SDS011;32676;52.630;4.896;2022-07-12T00:53:14;3.05;;;1.90;;
46941;SDS011;32676;52.630;4.896;2022-07-12T00:55:43;2.63;;;1.75;;
46941;SDS011;32676;52.630;4.896;2022-07-12T00:58:10;3.03;;;1.77;;
46941;SDS011;32676;52.630;4.896;2022-07-12T01:00:37;3.35;;;2.28;;
46941;SDS011;32676;52.630;4.896;2022-07-12T01:03:04;2.35;;;1.40;;
46941;SDS011;32676;52.630;4.896;2022-07-12T01:05:31;14.45;;;2.42;;
46941;SDS011;32676;52.630;4.896;2022-07-12T01:07:57;2.67;;;1.48;;
46941;SDS011;32676;52.630;4.896;2022-07-12T01:10:24;4.30;;;1.20;;
46941;SDS011;32676;52.630;4.896;2022-07-12T01:12:51;2.42;;;1.25;;
46941;SDS011;32676;52.630;4.896;2022-07-12T01:15:17;2.47;;;1.38;;
46941;SDS011;32676;52.630;4.896;2022-07-12T01:17:48;3.00;;;1.05;;
46941;SDS011;32676;52.630;4.896;2022-07-12T01:20:15;4.45;;;1.05;;
46941;SDS011;32676;52.630;4.896;2022-07-12T01:22:46;3.13;;;1.42;;
46941;SDS011;32676;52.630;4.896;2022-07-12T01:25:18;2.15;;;1.10;;
46941;SDS011;32676;52.630;4.896;2022-07-12T01:27:44;2.33;;;1.08;;
46941;SDS011;32676;52.630;4.896;2022-07-12T01:30:11;12.32;;;1.65;;
46941;SDS011;32676;52.630;4.896;2022-07-12T01:32:38;3.97;;;1.33;;
46941;SDS011;32676;52.630;4.896;2022-07-12T01:35:05;2.97;;;1.90;;
46941;SDS011;32676;52.630;4.896;2022-07-12T01:37:34;6.53;;;2.30;;
46941;SDS011;32676;52.630;4.896;2022-07-12T01:40:03;5.57;;;1.90;;
46941;SDS011;32676;52.630;4.896;2022-07-12T01:42:31;1.88;;;1.10;;
46941;SDS011;32676;52.630;4.896;2022-07-12T01:44:58;2.35;;;1.52;;
46941;SDS011;32676;52.630;4.896;2022-07-12T01:47:26;3.10;;;1.83;;
46941;SDS011;32676;52.630;4.896;2022-07-12T01:49:54;3.15;;;1.90;;
46941;SDS011;32676;52.630;4.896;2022-07-12T01:52:21;2.25;;;1.55;;
46941;SDS011;32676;52.630;4.896;2022-07-12T01:54:48;2.90;;;1.65;;
46941;SDS011;32676;52.630;4.896;2022-07-12T01:57:16;3.08;;;2.03;;
46941;SDS011;32676;52.630;4.896;2022-07-12T01:59:43;3.95;;;1.48;;
46941;SDS011;32676;52.630;4.896;2022-07-12T02:02:09;5.68;;;2.03;;
46941;SDS011;32676;52.630;4.896;2022-07-12T02:04:36;5.35;;;2.00;;
46941;SDS011;32676;52.630;4.896;2022-07-12T02:07:04;3.58;;;2.03;;
46941;SDS011;32676;52.630;4.896;2022-07-12T02:09:31;9.00;;;1.73;;
46941;SDS011;32676;52.630;4.896;2022-07-12T02:11:58;3.10;;;2.15;;
46941;SDS011;32676;52.630;4.896;2022-07-12T02:14:26;4.80;;;2.38;;
46941;SDS011;32676;52.630;4.896;2022-07-12T02:16:52;6.72;;;2.38;;
46941;SDS011;32676;52.630;4.896;2022-07-12T02:19:19;3.50;;;2.13;;
46941;SDS011;32676;52.630;4.896;2022-07-12T02:21:45;3.22;;;2.20;;
46941;SDS011;32676;52.630;4.896;2022-07-12T02:24:12;5.93;;;2.42;;
46941;SDS011;32676;52.630;4.896;2022-07-12T02:26:39;3.83;;;2.63;;
46941;SDS011;32676;52.630;4.896;2022-07-12T02:29:06;7.28;;;2.70;;
46941;SDS011;32676;52.630;4.896;2022-07-12T02:31:34;3.90;;;2.40;;
46941;SDS011;32676;52.630;4.896;2022-07-12T02:34:00;3.42;;;2.25;;
46941;SDS011;32676;52.630;4.896;2022-07-12T02:36:27;5.50;;;2.70;;
46941;SDS011;32676;52.630;4.896;2022-07-12T02:38:53;4.93;;;2.38;;
46941;SDS011;32676;52.630;4.896;2022-07-12T02:41:20;4.80;;;2.38;;
46941;SDS011;32676;52.630;4.896;2022-07-12T02:43:47;3.30;;;2.25;;
46941;SDS011;32676;52.630;4.896;2022-07-12T02:46:13;3.75;;;2.25;;
46941;SDS011;32676;52.630;4.896;2022-07-12T02:48:41;4.05;;;2.47;;
46941;SDS011;32676;52.630;4.896;2022-07-12T02:51:08;4.05;;;2.47;;
46941;SDS011;32676;52.630;4.896;2022-07-12T02:53:35;7.53;;;2.53;;
46941;SDS011;32676;52.630;4.896;2022-07-12T02:56:02;4.72;;;2.97;;
46941;SDS011;32676;52.630;4.896;2022-07-12T02:58:29;6.18;;;2.63;;
46941;SDS011;32676;52.630;4.896;2022-07-12T03:00:56;5.03;;;2.33;;
46941;SDS011;32676;52.630;4.896;2022-07-12T03:03:22;5.28;;;2.53;;
46941;SDS011;32676;52.630;4.896;2022-07-12T03:05:50;3.58;;;2.53;;
46941;SDS011;32676;52.630;4.896;2022-07-12T03:08:17;6.82;;;2.42;;
46941;SDS011;32676;52.630;4.896;2022-07-12T03:10:43;8.10;;;2.47;;
46941;SDS011;32676;52.630;4.896;2022-07-12T03:13:10;5.35;;;3.40;;
46941;SDS011;32676;52.630;4.896;2022-07-12T03:15:36;5.35;;;2.67;;
46941;SDS011;32676;52.630;4.896;2022-07-12T03:18:03;4.15;;;2.58;;
46941;SDS011;32676;52.630;4.896;2022-07-12T03:20:30;5.82;;;2.60;;
46941;SDS011;32676;52.630;4.896;2022-07-12T03:22:58;7.45;;;2.65;;
46941;SDS011;32676;52.630;4.896;2022-07-12T03:25:25;3.60;;;2.65;;
46941;SDS011;32676;52.630;4.896;2022-07-12T03:27:51;3.83;;;2.40;;
46941;SDS011;32676;52.630;4.896;2022-07-12T03:30:19;4.78;;;2.85;;
46941;SDS011;32676;52.630;4.896;2022-07-12T03:32:45;5.13;;;2.42;;
46941;SDS011;32676;52.630;4.896;2022-07-12T03:35:12;4.03;;;2.65;;
46941;SDS011;32676;52.630;4.896;2022-07-12T03:37:40;4.40;;;2.65;;
46941;SDS011;32676;52.630;4.896;2022-07-12T03:40:09;10.55;;;2.53;;
46941;SDS011;32676;52.630;4.896;2022-07-12T03:42:37;3.83;;;2.03;;
46941;SDS011;32676;52.630;4.896;2022-07-12T03:45:03;5.13;;;3.25;;
46941;SDS011;32676;52.630;4.896;2022-07-12T03:47:31;3.65;;;2.65;;
46941;SDS011;32676;52.630;4.896;2022-07-12T03:50:00;3.33;;;2.35;;
46941;SDS011;32676;52.630;4.896;2022-07-12T03:52:27;3.28;;;2.25;;
46941;SDS011;32676;52.630;4.896;2022-07-12T03:54:54;3.60;;;2.30;;
46941;SDS011;32676;52.630;4.896;2022-07-12T03:57:21;3.75;;;2.85;;
46941;SDS011;32676;52.630;4.896;2022-07-12T03:59:49;3.45;;;2.15;;
46941;SDS011;32676;52.630;4.896;2022-07-12T04:02:15;4.68;;;3.03;;
46941;SDS011;32676;52.630;4.896;2022-07-12T04:04:42;4.53;;;2.10;;
46941;SDS011;32676;52.630;4.896;2022-07-12T04:07:08;3.50;;;2.13;;
46941;SDS011;32676;52.630;4.896;2022-07-12T04:09:35;3.72;;;2.22;;
46941;SDS011;32676;52.630;4.896;2022-07-12T04:12:02;3.72;;;2.25;;
46941;SDS011;32676;52.630;4.896;2022-07-12T04:14:30;5.88;;;2.05;;
46941;SDS011;32676;52.630;4.896;2022-07-12T04:16:57;2.92;;;1.70;;
46941;SDS011;32676;52.630;4.896;2022-07-12T04:19:23;3.63;;;1.77;;
46941;SDS011;32676;52.630;4.896;2022-07-12T04:21:52;4.88;;;3.30;;
46941;SDS011;32676;52.630;4.896;2022-07-12T04:24:19;2.70;;;1.80;;
46941;SDS011;32676;52.630;4.896;2022-07-12T04:26:45;3.75;;;2.13;;
46941;SDS011;32676;52.630;4.896;2022-07-12T04:29:13;5.97;;;2.45;;
46941;SDS011;32676;52.630;4.896;2022-07-12T04:31:41;4.00;;;2.65;;
46941;SDS011;32676;52.630;4.896;2022-07-12T04:34:08;4.22;;;1.67;;
46941;SDS011;32676;52.630;4.896;2022-07-12T04:36:34;3.35;;;1.90;;
46941;SDS011;32676;52.630;4.896;2022-07-12T04:39:01;3.28;;;1.83;;
46941;SDS011;32676;52.630;4.896;2022-07-12T04:41:27;3.40;;;2.47;;
46941;SDS011;32676;52.630;4.896;2022-07-12T04:43:54;3.45;;;2.00;;
46941;SDS011;32676;52.630;4.896;2022-07-12T04:46:20;2.95;;;1.52;;
46941;SDS011;32676;52.630;4.896;2022-07-12T04:48:48;3.35;;;1.83;;
46941;SDS011;32676;52.630;4.896;2022-07-12T04:51:15;3.85;;;2.03;;
46941;SDS011;32676;52.630;4.896;2022-07-12T04:53:42;5.38;;;2.28;;
46941;SDS011;32676;52.630;4.896;2022-07-12T04:56:09;4.32;;;2.45;;
46941;SDS011;32676;52.630;4.896;2022-07-12T04:58:35;3.90;;;2.15;;
46941;SDS011;32676;52.630;4.896;2022-07-12T05:01:02;3.15;;;1.67;;
46941;SDS011;32676;52.630;4.896;2022-07-12T05:03:28;3.47;;;2.00;;
46941;SDS011;32676;52.630;4.896;2022-07-12T05:05:56;2.92;;;1.85;;
46941;SDS011;32676;52.630;4.896;2022-07-12T05:08:23;4.95;;;2.67;;
46941;SDS011;32676;52.630;4.896;2022-07-12T05:10:50;2.58;;;1.60;;
46941;SDS011;32676;52.630;4.896;2022-07-12T05:13:16;4.35;;;2.45;;
46941;SDS011;32676;52.630;4.896;2022-07-12T05:15:43;3.33;;;2.25;;
46941;SDS011;32676;52.630;4.896;2022-07-12T05:18:09;5.47;;;2.67;;
46941;SDS011;32676;52.630;4.896;2022-07-12T05:20:36;3.30;;;2.08;;
46941;SDS011;32676;52.630;4.896;2022-07-12T05:23:03;3.45;;;2.05;;
46941;SDS011;32676;52.630;4.896;2022-07-12T05:25:30;3.80;;;2.08;;
46941;SDS011;32676;52.630;4.896;2022-07-12T05:27:56;3.25;;;1.90;;
46941;SDS011;32676;52.630;4.896;2022-07-12T05:30:24;3.35;;;2.00;;
46941;SDS011;32676;52.630;4.896;2022-07-12T05:32:51;3.63;;;1.80;;
46941;SDS011;32676;52.630;4.896;2022-07-12T05:35:18;2.85;;;1.38;;
46941;SDS011;32676;52.630;4.896;2022-07-12T05:37:44;3.53;;;2.05;;
46941;SDS011;32676;52.630;4.896;2022-07-12T05:40:14;3.35;;;2.05;;
46941;SDS011;32676;52.630;4.896;2022-07-12T05:42:40;7.05;;;2.33;;
46941;SDS011;32676;52.630;4.896;2022-07-12T05:45:07;4.70;;;2.42;;
46941;SDS011;32676;52.630;4.896;2022-07-12T05:47:34;6.43;;;2.58;;
46941;SDS011;32676;52.630;4.896;2022-07-12T05:50:01;4.60;;;2.28;;
46941;SDS011;32676;52.630;4.896;2022-07-12T05:52:28;6.28;;;3.35;;
46941;SDS011;32676;52.630;4.896;2022-07-12T05:55:12;5.88;;;3.40;;
46941;SDS011;32676;52.630;4.896;2022-07-12T05:57:40;9.30;;;2.47;;
46941;SDS011;32676;52.630;4.896;2022-07-12T06:00:07;2.97;;;2.08;;
46941;SDS011;32676;52.630;4.896;2022-07-12T06:02:35;3.90;;;2.20;;
46941;SDS011;32676;52.630;4.896;2022-07-12T06:05:01;5.60;;;2.80;;
46941;SDS011;32676;52.630;4.896;2022-07-12T06:07:27;7.55;;;2.70;;
46941;SDS011;32676;52.630;4.896;2022-07-12T06:09:54;10.13;;;2.80;;
46941;SDS011;32676;52.630;4.896;2022-07-12T06:12:22;4.28;;;2.70;;
46941;SDS011;32676;52.630;4.896;2022-07-12T06:14:48;5.10;;;2.97;;
46941;SDS011;32676;52.630;4.896;2022-07-12T06:17:15;4.25;;;2.70;;
46941;SDS011;32676;52.630;4.896;2022-07-12T06:19:46;4.03;;;2.67;;
46941;SDS011;32676;52.630;4.896;2022-07-12T06:22:12;5.25;;;3.25;;
46941;SDS011;32676;52.630;4.896;2022-07-12T06:24:39;6.53;;;3.58;;
46941;SDS011;32676;52.630;4.896;2022-07-12T06:27:05;41.40;;;4.32;;
46941;SDS011;32676;52.630;4.896;2022-07-12T06:29:33;6.82;;;3.72;;
46941;SDS011;32676;52.630;4.896;2022-07-12T06:32:00;8.40;;;4.13;;
46941;SDS011;32676;52.630;4.896;2022-07-12T06:34:26;10.45;;;3.63;;
46941;SDS011;32676;52.630;4.896;2022-07-12T06:36:52;19.33;;;3.42;;
46941;SDS011;32676;52.630;4.896;2022-07-12T06:39:19;5.38;;;2.67;;
46941;SDS011;32676;52.630;4.896;2022-07-12T06:41:46;6.82;;;3.72;;
46941;SDS011;32676;52.630;4.896;2022-07-12T06:44:12;4.78;;;3.20;;
46941;SDS011;32676;52.630;4.896;2022-07-12T06:46:40;14.10;;;3.65;;
46941;SDS011;32676;52.630;4.896;2022-07-12T06:49:06;9.35;;;4.05;;
46941;SDS011;32676;52.630;4.896;2022-07-12T06:51:33;4.32;;;2.88;;
46941;SDS011;32676;52.630;4.896;2022-07-12T06:54:00;5.80;;;3.42;;
46941;SDS011;32676;52.630;4.896;2022-07-12T06:56:26;4.53;;;3.40;;
46941;SDS011;32676;52.630;4.896;2022-07-12T06:58:53;6.43;;;3.35;;
46941;SDS011;32676;52.630;4.896;2022-07-12T07:01:19;11.25;;;3.13;;
46941;SDS011;32676;52.630;4.896;2022-07-12T07:03:47;7.70;;;3.97;;
46941;SDS011;32676;52.630;4.896;2022-07-12T07:06:13;6.15;;;4.13;;
46941;SDS011;32676;52.630;4.896;2022-07-12T07:08:40;5.47;;;3.45;;
46941;SDS011;32676;52.630;4.896;2022-07-12T07:11:07;7.15;;;3.03;;
46941;SDS011;32676;52.630;4.896;2022-07-12T07:13:34;5.82;;;3.25;;
46941;SDS011;32676;52.630;4.896;2022-07-12T07:16:00;7.07;;;3.50;;
46941;SDS011;32676;52.630;4.896;2022-07-12T07:18:27;4.70;;;3.13;;
46941;SDS011;32676;52.630;4.896;2022-07-12T07:20:55;8.10;;;4.72;;
46941;SDS011;32676;52.630;4.896;2022-07-12T07:23:21;6.57;;;3.65;;
46941;SDS011;32676;52.630;4.896;2022-07-12T07:25:47;7.85;;;3.88;;
46941;SDS011;32676;52.630;4.896;2022-07-12T07:28:14;4.80;;;2.63;;
46941;SDS011;32676;52.630;4.896;2022-07-12T07:30:40;6.68;;;2.97;;
46941;SDS011;32676;52.630;4.896;2022-07-12T07:33:18;5.07;;;3.30;;
46941;SDS011;32676;52.630;4.896;2022-07-12T07:35:46;13.05;;;4.82;;
46941;SDS011;32676;52.630;4.896;2022-07-12T07:38:14;5.45;;;3.20;;
46941;SDS011;32676;52.630;4.896;2022-07-12T07:40:41;6.47;;;3.35;;
46941;SDS011;32676;52.630;4.896;2022-07-12T07:43:07;5.03;;;2.83;;
46941;SDS011;32676;52.630;4.896;2022-07-12T07:45:34;6.28;;;2.75;;
46941;SDS011;32676;52.630;4.896;2022-07-12T07:48:00;7.32;;;3.67;;
46941;SDS011;32676;52.630;4.896;2022-07-12T07:50:30;4.53;;;3.00;;
46941;SDS011;32676;52.630;4.896;2022-07-12T07:52:57;10.05;;;3.30;;
46941;SDS011;32676;52.630;4.896;2022-07-12T07:55:24;5.25;;;3.22;;
46941;SDS011;32676;52.630;4.896;2022-07-12T07:57:51;6.53;;;3.88;;
46941;SDS011;32676;52.630;4.896;2022-07-12T08:00:18;5.28;;;3.40;;
46941;SDS011;32676;52.630;4.896;2022-07-12T08:02:45;6.60;;;3.42;;
46941;SDS011;32676;52.630;4.896;2022-07-12T08:05:11;8.82;;;3.80;;
46941;SDS011;32676;52.630;4.896;2022-07-12T08:07:38;8.40;;;3.67;;
46941;SDS011;32676;52.630;4.896;2022-07-12T08:10:04;10.60;;;3.42;;
46941;SDS011;32676;52.630;4.896;2022-07-12T08:12:36;7.72;;;3.00;;
46941;SDS011;32676;52.630;4.896;2022-07-12T08:15:03;4.80;;;3.00;;
46941;SDS011;32676;52.630;4.896;2022-07-12T08:17:31;5.20;;;2.72;;
46941;SDS011;32676;52.630;4.896;2022-07-12T08:19:57;6.47;;;3.28;;
46941;SDS011;32676;52.630;4.896;2022-07-12T08:22:24;8.27;;;3.50;;
46941;SDS011;32676;52.630;4.896;2022-07-12T08:24:50;7.00;;;4.32;;
46941;SDS011;32676;52.630;4.896;2022-07-12T08:27:17;5.78;;;3.10;;
46941;SDS011;32676;52.630;4.896;2022-07-12T08:29:44;4.50;;;3.03;;
46941;SDS011;32676;52.630;4.896;2022-07-12T08:32:11;5.32;;;2.95;;
46941;SDS011;32676;52.630;4.896;2022-07-12T08:34:38;11.73;;;3.20;;
46941;SDS011;32676;52.630;4.896;2022-07-12T08:37:04;9.95;;;3.28;;
46941;SDS011;32676;52.630;4.896;2022-07-12T08:39:31;7.47;;;3.42;;
46941;SDS011;32676;52.630;4.896;2022-07-12T08:41:57;8.55;;;3.10;;
46941;SDS011;32676;52.630;4.896;2022-07-12T08:44:24;13.90;;;3.70;;
46941;SDS011;32676;52.630;4.896;2022-07-12T08:46:52;14.07;;;4.03;;
46941;SDS011;32676;52.630;4.896;2022-07-12T08:49:18;5.75;;;2.60;;
46941;SDS011;32676;52.630;4.896;2022-07-12T08:51:46;10.60;;;3.03;;
46941;SDS011;32676;52.630;4.896;2022-07-12T08:54:13;9.35;;;2.83;;
46941;SDS011;32676;52.630;4.896;2022-07-12T08:56:42;6.75;;;2.78;;
46941;SDS011;32676;52.630;4.896;2022-07-12T08:59:09;6.57;;;3.30;;
46941;SDS011;32676;52.630;4.896;2022-07-12T09:01:41;6.45;;;2.80;;
46941;SDS011;32676;52.630;4.896;2022-07-12T09:04:11;7.97;;;2.65;;
46941;SDS011;32676;52.630;4.896;2022-07-12T09:06:38;5.50;;;2.97;;
46941;SDS011;32676;52.630;4.896;2022-07-12T09:09:05;6.63;;;3.13;;
46941;SDS011;32676;52.630;4.896;2022-07-12T09:11:33;5.95;;;2.50;;
46941;SDS011;32676;52.630;4.896;2022-07-12T09:14:01;6.65;;;2.03;;
46941;SDS011;32676;52.630;4.896;2022-07-12T09:16:28;7.78;;;2.95;;
46941;SDS011;32676;52.630;4.896;2022-07-12T09:19:12;8.02;;;2.63;;
46941;SDS011;32676;52.630;4.896;2022-07-12T09:21:45;5.05;;;2.78;;
46941;SDS011;32676;52.630;4.896;2022-07-12T09:24:14;7.10;;;3.33;;
46941;SDS011;32676;52.630;4.896;2022-07-12T09:26:41;5.47;;;3.50;;
46941;SDS011;32676;52.630;4.896;2022-07-12T09:29:09;6.63;;;2.50;;
46941;SDS011;32676;52.630;4.896;2022-07-12T09:31:40;7.68;;;3.13;;
46941;SDS011;32676;52.630;4.896;2022-07-12T09:34:30;8.15;;;3.42;;
46941;SDS011;32676;52.630;4.896;2022-07-12T09:37:14;6.60;;;2.90;;
46941;SDS011;32676;52.630;4.896;2022-07-12T09:39:41;12.90;;;3.95;;
46941;SDS011;32676;52.630;4.896;2022-07-12T09:42:08;5.13;;;2.63;;
46941;SDS011;32676;52.630;4.896;2022-07-12T09:44:36;4.80;;;3.08;;
46941;SDS011;32676;52.630;4.896;2022-07-12T09:47:03;4.28;;;2.50;;
46941;SDS011;32676;52.630;4.896;2022-07-12T09:49:31;5.82;;;2.58;;
46941;SDS011;32676;52.630;4.896;2022-07-12T09:52:01;8.10;;;3.88;;
46941;SDS011;32676;52.630;4.896;2022-07-12T09:54:28;7.05;;;2.70;;
46941;SDS011;32676;52.630;4.896;2022-07-12T09:56:58;4.75;;;2.85;;
46941;SDS011;32676;52.630;4.896;2022-07-12T09:59:28;6.38;;;3.30;;
46941;SDS011;32676;52.630;4.896;2022-07-12T10:01:56;9.80;;;3.88;;
46941;SDS011;32676;52.630;4.896;2022-07-12T10:04:26;7.57;;;3.95;;
46941;SDS011;32676;52.630;4.896;2022-07-12T10:06:57;6.40;;;3.70;;
46941;SDS011;32676;52.630;4.896;2022-07-12T10:09:24;9.23;;;3.80;;
46941;SDS011;32676;52.630;4.896;2022-07-12T10:11:52;8.85;;;3.35;;
46941;SDS011;32676;52.630;4.896;2022-07-12T10:14:20;9.00;;;3.75;;
46941;SDS011;32676;52.630;4.896;2022-07-12T10:16:47;7.35;;;3.58;;
46941;SDS011;32676;52.630;4.896;2022-07-12T10:19:23;4.53;;;3.10;;
46941;SDS011;32676;52.630;4.896;2022-07-12T10:30:11;4.65;;;1.98;;
46941;SDS011;32676;52.630;4.896;2022-07-12T10:32:41;4.65;;;2.22;;
46941;SDS011;32676;52.630;4.896;2022-07-12T10:35:11;4.97;;;2.45;;
46941;SDS011;32676;52.630;4.896;2022-07-12T10:37:39;6.20;;;2.40;;
46941;SDS011;32676;52.630;4.896;2022-07-12T10:40:13;5.03;;;1.42;;
46941;SDS011;32676;52.630;4.896;2022-07-12T10:42:41;6.40;;;1.50;;
46941;SDS011;32676;52.630;4.896;2022-07-12T10:45:42;3.03;;;1.38;;
46941;SDS011;32676;52.630;4.896;2022-07-12T10:48:18;7.75;;;2.85;;
46941;SDS011;32676;52.630;4.896;2022-07-12T10:50:53;4.00;;;1.80;;
46941;SDS011;32676;52.630;4.896;2022-07-12T10:53:23;7.65;;;2.85;;
46941;SDS011;32676;52.630;4.896;2022-07-12T10:56:07;5.05;;;2.10;;
46941;SDS011;32676;52.630;4.896;2022-07-12T10:58:36;5.40;;;1.98;;
46941;SDS011;32676;52.630;4.896;2022-07-12T11:01:07;19.23;;;2.08;;
46941;SDS011;32676;52.630;4.896;2022-07-12T11:03:37;5.28;;;2.35;;
46941;SDS011;32676;52.630;4.896;2022-07-12T11:06:05;4.07;;;2.13;;
46941;SDS011;32676;52.630;4.896;2022-07-12T11:08:36;6.68;;;2.85;;
46941;SDS011;32676;52.630;4.896;2022-07-12T11:11:15;4.88;;;2.65;;
46941;SDS011;32676;52.630;4.896;2022-07-12T11:13:44;6.65;;;2.78;;
46941;SDS011;32676;52.630;4.896;2022-07-12T11:16:10;3.90;;;1.88;;
46941;SDS011;32676;52.630;4.896;2022-07-12T11:18:37;14.65;;;2.90;;
46941;SDS011;32676;52.630;4.896;2022-07-12T11:21:04;5.95;;;2.53;;
46941;SDS011;32676;52.630;4.896;2022-07-12T11:23:31;5.63;;;2.40;;
46941;SDS011;32676;52.630;4.896;2022-07-12T11:25:59;5.05;;;2.88;;
46941;SDS011;32676;52.630;4.896;2022-07-12T11:28:27;8.35;;;3.72;;
46941;SDS011;32676;52.630;4.896;2022-07-12T11:31:02;6.88;;;3.22;;
46941;SDS011;32676;52.630;4.896;2022-07-12T11:33:30;7.53;;;3.40;;
46941;SDS011;32676;52.630;4.896;2022-07-12T11:35:58;7.68;;;3.30;;
46941;SDS011;32676;52.630;4.896;2022-07-12T11:38:25;9.32;;;3.72;;
46941;SDS011;32676;52.630;4.896;2022-07-12T11:40:54;11.10;;;3.53;;
46941;SDS011;32676;52.630;4.896;2022-07-12T11:43:21;5.88;;;3.25;;
46941;SDS011;32676;52.630;4.896;2022-07-12T11:45:48;8.38;;;3.97;;
46941;SDS011;32676;52.630;4.896;2022-07-12T11:48:16;7.30;;;3.40;;
46941;SDS011;32676;52.630;4.896;2022-07-12T11:50:43;8.43;;;3.88;;
46941;SDS011;32676;52.630;4.896;2022-07-12T11:53:14;28.02;;;3.90;;
46941;SDS011;32676;52.630;4.896;2022-07-12T11:55:43;4.85;;;3.65;;
46941;SDS011;32676;52.630;4.896;2022-07-12T11:58:10;6.97;;;4.65;;
46941;SDS011;32676;52.630;4.896;2022-07-12T12:00:37;9.18;;;4.43;;
46941;SDS011;32676;52.630;4.896;2022-07-12T12:03:04;6.38;;;3.92;;
46941;SDS011;32676;52.630;4.896;2022-07-12T12:05:32;11.32;;;4.13;;
46941;SDS011;32676;52.630;4.896;2022-07-12T12:08:01;9.25;;;5.22;;
46941;SDS011;32676;52.630;4.896;2022-07-12T12:10:27;7.72;;;3.58;;
46941;SDS011;32676;52.630;4.896;2022-07-12T12:12:55;11.13;;;4.40;;
46941;SDS011;32676;52.630;4.896;2022-07-12T12:15:23;14.07;;;4.40;;
46941;SDS011;32676;52.630;4.896;2022-07-12T12:17:51;11.63;;;3.95;;
46941;SDS011;32676;52.630;4.896;2022-07-12T12:20:20;11.55;;;3.67;;
46941;SDS011;32676;52.630;4.896;2022-07-12T12:22:49;12.68;;;3.80;;
46941;SDS011;32676;52.630;4.896;2022-07-12T12:25:18;17.80;;;3.45;;
46941;SDS011;32676;52.630;4.896;2022-07-12T12:27:46;7.00;;;3.45;;
46941;SDS011;32676;52.630;4.896;2022-07-12T12:30:14;12.10;;;3.85;;
46941;SDS011;32676;52.630;4.896;2022-07-12T12:32:43;8.18;;;4.60;;
46941;SDS011;32676;52.630;4.896;2022-07-12T12:35:14;10.68;;;3.95;;
46941;SDS011;32676;52.630;4.896;2022-07-12T12:37:54;6.22;;;3.47;;
46941;SDS011;32676;52.630;4.896;2022-07-12T12:40:22;8.02;;;3.38;;
46941;SDS011;32676;52.630;4.896;2022-07-12T12:42:50;14.75;;;4.90;;
46941;SDS011;32676;52.630;4.896;2022-07-12T12:45:21;8.98;;;4.35;;
46941;SDS011;32676;52.630;4.896;2022-07-12T12:47:55;6.22;;;3.28;;
46941;SDS011;32676;52.630;4.896;2022-07-12T12:50:39;14.30;;;3.95;;
46941;SDS011;32676;52.630;4.896;2022-07-12T12:53:09;7.35;;;4.30;;
46941;SDS011;32676;52.630;4.896;2022-07-12T12:55:36;7.28;;;3.67;;
46941;SDS011;32676;52.630;4.896;2022-07-12T12:58:03;10.15;;;3.92;;
46941;SDS011;32676;52.630;4.896;2022-07-12T13:00:31;11.05;;;4.20;;
46941;SDS011;32676;52.630;4.896;2022-07-12T13:02:58;8.45;;;3.25;;
46941;SDS011;32676;52.630;4.896;2022-07-12T13:05:25;8.00;;;4.15;;
46941;SDS011;32676;52.630;4.896;2022-07-12T13:07:53;9.30;;;4.03;;
46941;SDS011;32676;52.630;4.896;2022-07-12T13:10:21;7.03;;;4.18;;
46941;SDS011;32676;52.630;4.896;2022-07-12T13:12:48;11.15;;;3.60;;
46941;SDS011;32676;52.630;4.896;2022-07-12T13:15:15;12.70;;;3.83;;
46941;SDS011;32676;52.630;4.896;2022-07-12T13:17:41;14.57;;;3.47;;
46941;SDS011;32676;52.630;4.896;2022-07-12T13:20:08;11.63;;;4.85;;
46941;SDS011;32676;52.630;4.896;2022-07-12T13:22:37;12.82;;;3.58;;
46941;SDS011;32676;52.630;4.896;2022-07-12T13:25:05;12.52;;;4.35;;
46941;SDS011;32676;52.630;4.896;2022-07-12T13:27:33;7.70;;;4.18;;
46941;SDS011;32676;52.630;4.896;2022-07-12T13:30:00;8.35;;;4.45;;
46941;SDS011;32676;52.630;4.896;2022-07-12T13:32:27;8.73;;;4.35;;
46941;SDS011;32676;52.630;4.896;2022-07-12T13:34:53;9.80;;;4.32;;
46941;SDS011;32676;52.630;4.896;2022-07-12T13:37:20;9.75;;;4.55;;
46941;SDS011;32676;52.630;4.896;2022-07-12T13:39:48;8.90;;;4.03;;
46941;SDS011;32676;52.630;4.896;2022-07-12T13:42:32;7.15;;;3.47;;
46941;SDS011;32676;52.630;4.896;2022-07-12T13:45:00;7.43;;;3.90;;
46941;SDS011;32676;52.630;4.896;2022-07-12T13:47:26;7.40;;;4.05;;
46941;SDS011;32676;52.630;4.896;2022-07-12T13:49:53;6.85;;;3.97;;
46941;SDS011;32676;52.630;4.896;2022-07-12T13:52:20;11.05;;;3.30;;
46941;SDS011;32676;52.630;4.896;2022-07-12T13:54:47;6.72;;;3.25;;
46941;SDS011;32676;52.630;4.896;2022-07-12T13:57:13;6.32;;;2.70;;
46941;SDS011;32676;52.630;4.896;2022-07-12T13:59:41;11.02;;;3.45;;
46941;SDS011;32676;52.630;4.896;2022-07-12T14:02:08;4.88;;;2.80;;
46941;SDS011;32676;52.630;4.896;2022-07-12T14:04:35;9.52;;;3.55;;
46941;SDS011;32676;52.630;4.896;2022-07-12T14:07:01;7.05;;;4.10;;
46941;SDS011;32676;52.630;4.896;2022-07-12T14:09:28;12.50;;;3.92;;
46941;SDS011;32676;52.630;4.896;2022-07-12T14:11:54;6.43;;;3.65;;
46941;SDS011;32676;52.630;4.896;2022-07-12T14:14:21;8.23;;;2.75;;
46941;SDS011;32676;52.630;4.896;2022-07-12T14:17:13;7.85;;;3.33;;
46941;SDS011;32676;52.630;4.896;2022-07-12T14:19:40;7.40;;;2.25;;
46941;SDS011;32676;52.630;4.896;2022-07-12T14:22:06;8.60;;;2.08;;
46941;SDS011;32676;52.630;4.896;2022-07-12T14:24:32;7.85;;;1.70;;
46941;SDS011;32676;52.630;4.896;2022-07-12T14:26:59;9.80;;;2.80;;
46941;SDS011;32676;52.630;4.896;2022-07-12T14:29:26;7.25;;;1.75;;
46941;SDS011;32676;52.630;4.896;2022-07-12T14:31:52;5.60;;;2.25;;
46941;SDS011;32676;52.630;4.896;2022-07-12T14:34:22;6.75;;;1.77;;
46941;SDS011;32676;52.630;4.896;2022-07-12T14:36:48;6.68;;;3.00;;
46941;SDS011;32676;52.630;4.896;2022-07-12T14:39:15;6.28;;;1.73;;
46941;SDS011;32676;52.630;4.896;2022-07-12T14:41:42;3.78;;;1.45;;
46941;SDS011;32676;52.630;4.896;2022-07-12T14:44:08;5.18;;;1.40;;
46941;SDS011;32676;52.630;4.896;2022-07-12T14:46:35;4.15;;;1.42;;
46941;SDS011;32676;52.630;4.896;2022-07-12T14:49:02;6.25;;;2.10;;
46941;SDS011;32676;52.630;4.896;2022-07-12T14:51:30;6.47;;;2.30;;
46941;SDS011;32676;52.630;4.896;2022-07-12T14:53:57;3.58;;;1.60;;
46941;SDS011;32676;52.630;4.896;2022-07-12T14:56:23;4.78;;;1.67;;
46941;SDS011;32676;52.630;4.896;2022-07-12T14:58:50;3.55;;;1.83;;